Lyons, Wisconsin
Current Conditions -  °F | °C
As of 8:55 PM on Monday 22 Dec 2014 (Local Time) from KBUU Reporting Station
Unknown Precip Unknown Precip  
Wind Chill: 30°   Ceiling: 500
Heat Index: 37°   Visibility: 5mi
Dew Point: 37°   Wind: 10mph
Humidity: 99%   Direction: 120°ESE
Pressure: 29.64"   Gusts: 18mph
Location:  42.65°N, 88.36°W
Report Text: KBUU 230255Z AUTO 12009G16KT 5SM UP OVC005 03/03 A2964 RMK AO2 P0001 60004 T00280026
Loading
Personal Weather Stations






























Interactive Weather Map New forecast layout! Learn more

10-Day Weather Forecast

Advertisements
Track Severe Weather on mobile